Time;durP1;ratioP1;P1;durP2;ratioP2;P2;SDS_P1;SDS_P2;PMS_P1;PMS_P2;Temp;Humidity;BMP_temperature;BMP_pressure;BME280_temperature;BME280_humidity;BME280_pressure;Samples;Min_cycle;Max_cycle;Signal;HPM_P1;HPM_P2
2023/04/27 00:00:26;;;;;;;3.30;0.70;;;22.60;99.90;;;;;;5071964;28;20410;-76
2023/04/27 00:02:57;;;;;;;3.20;0.63;;;22.60;99.90;;;;;;5073527;28;20195;-75
2023/04/27 00:05:29;;;;;;;4.88;0.85;;;22.70;99.90;;;;;;5071151;28;20223;-75
2023/04/27 00:08:00;;;;;;;2.78;0.60;;;22.70;99.90;;;;;;5072733;28;20192;-75
2023/04/27 00:10:31;;;;;;;3.63;0.50;;;22.70;99.90;;;;;;5074452;28;20207;-74
2023/04/27 00:13:02;;;;;;;3.95;0.80;;;22.80;99.90;;;;;;5073935;28;20196;-75
2023/04/27 00:15:35;;;;;;;5.70;0.70;;;22.80;99.90;;;;;;5074131;28;20195;-75
2023/04/27 00:18:06;;;;;;;2.53;0.60;;;22.80;99.90;;;;;;5074099;28;20199;-74
2023/04/27 00:20:38;;;;;;;3.83;0.73;;;22.80;99.90;;;;;;5073871;28;20206;-75
2023/04/27 00:23:10;;;;;;;3.70;0.82;;;22.80;99.90;;;;;;5074005;28;20200;-74
2023/04/27 00:25:41;;;;;;;3.47;0.80;;;22.90;99.90;;;;;;5073769;28;20235;-75
2023/04/27 00:28:12;;;;;;;2.22;0.85;;;23.10;99.90;;;;;;5073863;28;20547;-75
2023/04/27 00:30:46;;;;;;;4.70;0.70;;;23.20;99.90;;;;;;5073728;28;20223;-75
2023/04/27 00:33:18;;;;;;;3.42;0.90;;;23.40;99.90;;;;;;5073610;28;20254;-74
2023/04/27 00:35:49;;;;;;;6.68;0.82;;;23.40;99.90;;;;;;5073830;28;20215;-74
2023/04/27 00:38:20;;;;;;;3.95;1.00;;;23.30;99.90;;;;;;5070343;28;20223;-74
2023/04/27 00:40:51;;;;;;;6.03;0.90;;;23.30;99.90;;;;;;5071075;28;20294;-74
2023/04/27 00:43:22;;;;;;;6.07;0.90;;;23.30;99.90;;;;;;5071917;28;20595;-74
2023/04/27 00:45:55;;;;;;;3.33;0.63;;;23.40;99.90;;;;;;5073275;28;20711;-75
2023/04/27 00:48:27;;;;;;;4.47;1.10;;;23.40;99.90;;;;;;5073267;28;20188;-75
2023/04/27 00:50:58;;;;;;;3.05;0.70;;;23.40;99.90;;;;;;5073363;28;20207;-75
2023/04/27 00:53:29;;;;;;;3.78;0.70;;;23.50;99.90;;;;;;5070819;28;20658;-76
2023/04/27 00:56:00;;;;;;;2.85;0.68;;;23.50;99.90;;;;;;5068529;28;20562;-76
2023/04/27 00:58:35;;;;;;;2.42;0.63;;;23.50;99.90;;;;;;5071475;28;20199;-75
2023/04/27 01:01:09;;;;;;;4.30;0.82;;;23.50;99.90;;;;;;5057698;28;20313;-75
2023/04/27 01:03:40;;;;;;;2.20;0.57;;;23.60;99.90;;;;;;5073067;28;20215;-75
2023/04/27 01:06:11;;;;;;;2.67;0.70;;;23.70;99.90;;;;;;5072819;28;20767;-76
2023/04/27 01:08:42;;;;;;;3.75;0.60;;;23.70;99.90;;;;;;5073039;28;20196;-76
2023/04/27 01:11:14;;;;;;;2.60;0.50;;;23.70;99.90;;;;;;5071213;28;20196;-76
2023/04/27 01:13:46;;;;;;;3.70;0.85;;;23.80;99.90;;;;;;5073400;28;20199;-75
2023/04/27 01:16:20;;;;;;;6.07;0.85;;;23.90;99.90;;;;;;5073325;28;20200;-75
2023/04/27 01:18:52;;;;;;;5.18;0.90;;;24.00;99.90;;;;;;5072011;28;20578;-76
2023/04/27 01:21:23;;;;;;;2.85;0.55;;;23.90;99.90;;;;;;5073168;28;20255;-75
2023/04/27 01:23:56;;;;;;;1.70;0.70;;;23.80;99.90;;;;;;5071935;28;20675;-74
2023/04/27 01:26:27;;;;;;;3.45;0.70;;;23.80;99.90;;;;;;5072518;28;20575;-75
2023/04/27 01:28:58;;;;;;;2.05;0.60;;;23.90;99.90;;;;;;5072396;28;20208;-75
2023/04/27 01:31:30;;;;;;;3.50;1.08;;;23.90;99.90;;;;;;5088115;28;20206;-75
2023/04/27 01:34:01;;;;;;;4.40;0.63;;;24.00;99.90;;;;;;5072264;28;20610;-75
2023/04/27 01:36:32;;;;;;;5.00;0.80;;;24.10;99.90;;;;;;5072422;28;20682;-74
2023/04/27 01:39:08;;;;;;;2.22;0.60;;;24.20;99.90;;;;;;5072548;28;20245;-74
2023/04/27 01:41:39;;;;;;;2.65;0.65;;;24.30;99.90;;;;;;5072304;28;20203;-74
2023/04/27 01:44:10;;;;;;;3.88;0.60;;;24.40;99.90;;;;;;5072475;28;20200;-76
2023/04/27 01:46:41;;;;;;;2.53;0.47;;;24.50;99.90;;;;;;5069746;28;20215;-74
2023/04/27 01:49:15;;;;;;;1.88;0.60;;;24.50;99.90;;;;;;5072292;28;20548;-76
2023/04/27 01:51:46;;;;;;;2.95;0.60;;;24.60;99.90;;;;;;5068340;28;20211;-74
2023/04/27 01:54:20;;;;;;;1.23;0.40;;;24.70;99.90;;;;;;5071143;28;20192;-75
2023/04/27 01:56:51;;;;;;;1.55;0.60;;;24.70;99.90;;;;;;5067369;28;20196;-75
2023/04/27 01:59:22;;;;;;;3.05;0.50;;;24.80;99.90;;;;;;5067370;28;20196;-75
2023/04/27 02:01:53;;;;;;;1.58;0.60;;;24.90;99.90;;;;;;5069025;28;20698;-76
2023/04/27 02:04:24;;;;;;;3.70;0.90;;;25.00;99.90;;;;;;5072658;28;20200;-74
2023/04/27 02:06:55;;;;;;;3.22;0.60;;;25.10;99.90;;;;;;5068363;28;20263;-72
2023/04/27 02:09:28;;;;;;;6.50;0.80;;;25.10;99.90;;;;;;5070103;28;20202;-75
2023/04/27 02:12:00;;;;;;;1.55;0.40;;;25.10;99.90;;;;;;5071844;28;20203;-75
2023/04/27 02:14:31;;;;;;;1.45;0.43;;;24.90;99.90;;;;;;5070421;28;20192;-75
2023/04/27 02:17:02;;;;;;;2.47;0.70;;;24.80;99.90;;;;;;5068679;28;20670;-76
2023/04/27 02:19:35;;;;;;;4.75;0.90;;;24.70;99.90;;;;;;5067625;28;20198;-75
2023/04/27 02:22:06;;;;;;;2.42;0.55;;;24.70;99.90;;;;;;5064830;28;20732;-76
2023/04/27 02:24:41;;;;;;;0.75;0.30;;;24.70;99.90;;;;;;5068981;28;20192;-76
2023/04/27 02:27:12;;;;;;;2.83;0.85;;;24.60;99.90;;;;;;5069516;28;20229;-75
2023/04/27 02:29:43;;;;;;;2.90;0.55;;;24.50;99.90;;;;;;5071860;28;20199;-75
2023/04/27 02:32:14;;;;;;;3.60;1.05;;;24.60;99.90;;;;;;5070797;28;20192;-76
2023/04/27 02:34:45;;;;;;;2.90;0.60;;;24.90;99.90;;;;;;5070985;28;20199;-75
2023/04/27 02:37:19;;;;;;;4.63;0.50;;;25.00;99.90;;;;;;5069136;28;20279;-75
2023/04/27 02:39:52;;;;;;;2.58;0.68;;;24.90;99.90;;;;;;5062378;28;20192;-74
2023/04/27 02:42:23;;;;;;;3.25;0.60;;;24.70;99.90;;;;;;5073289;28;20218;-76
2023/04/27 02:44:54;;;;;;;1.98;0.55;;;24.80;99.90;;;;;;5069079;28;20209;-75
2023/04/27 02:47:26;;;;;;;3.80;0.95;;;24.80;99.90;;;;;;5067457;28;20258;-75
2023/04/27 02:49:57;;;;;;;1.75;0.55;;;24.80;99.90;;;;;;5069212;28;20576;-74
2023/04/27 02:52:28;;;;;;;2.15;0.70;;;24.80;99.90;;;;;;5070818;28;20227;-76
2023/04/27 02:55:01;;;;;;;2.53;0.75;;;24.80;99.90;;;;;;5071773;28;20204;-75
2023/04/27 02:57:32;;;;;;;3.08;0.88;;;24.70;99.90;;;;;;5071822;28;20223;-75
2023/04/27 03:00:05;;;;;;;2.13;0.75;;;24.80;99.90;;;;;;5071518;28;20240;-75
2023/04/27 03:02:36;;;;;;;5.78;1.10;;;24.80;99.90;;;;;;5071504;28;20203;-76
2023/04/27 03:05:08;;;;;;;3.50;0.80;;;24.70;99.90;;;;;;5071508;28;20203;-75
2023/04/27 03:07:39;;;;;;;7.55;1.13;;;24.60;99.90;;;;;;5072075;28;20224;-76
2023/04/27 03:10:13;;;;;;;4.05;1.67;;;24.40;99.90;;;;;;5070217;28;20232;-75
2023/04/27 03:12:46;;;;;;;5.47;1.50;;;24.20;99.90;;;;;;5071884;28;20230;-76
2023/04/27 03:15:17;;;;;;;3.85;1.00;;;24.30;99.90;;;;;;5064326;28;20193;-74
2023/04/27 03:17:48;;;;;;;5.22;0.93;;;24.50;99.90;;;;;;5070010;28;20571;-76
2023/04/27 03:20:19;;;;;;;3.08;0.75;;;24.50;99.90;;;;;;5070675;28;20659;-77
2023/04/27 03:22:50;;;;;;;4.50;1.05;;;24.40;99.90;;;;;;5070479;28;20215;-75
2023/04/27 03:25:23;;;;;;;6.38;1.05;;;24.30;99.90;;;;;;5069287;28;20271;-76
2023/04/27 03:27:54;;;;;;;6.32;1.10;;;24.20;99.90;;;;;;5068813;28;20227;-76
2023/04/27 03:30:26;;;;;;;4.22;1.00;;;24.10;99.90;;;;;;5071313;28;20196;-75
2023/04/27 03:32:57;;;;;;;4.07;0.80;;;24.20;99.90;;;;;;5070402;28;20203;-75
2023/04/27 03:35:28;;;;;;;6.93;1.00;;;24.10;99.90;;;;;;5070130;28;20204;-76
2023/04/27 03:37:59;;;;;;;2.85;0.80;;;24.20;99.90;;;;;;5070664;28;20242;-75
2023/04/27 03:40:32;;;;;;;7.22;1.08;;;24.40;99.90;;;;;;5069895;28;20192;-76
2023/04/27 03:43:03;;;;;;;2.78;0.80;;;24.50;99.90;;;;;;5069883;28;20679;-76
2023/04/27 03:45:34;;;;;;;2.00;0.60;;;24.70;99.90;;;;;;5070810;28;20203;-76
2023/04/27 03:48:06;;;;;;;4.97;0.93;;;24.80;99.90;;;;;;5070370;28;20235;-77
2023/04/27 03:50:37;;;;;;;5.82;0.80;;;24.80;99.90;;;;;;5070241;28;20192;-75
2023/04/27 03:53:08;;;;;;;4.43;1.00;;;24.90;99.90;;;;;;5068957;28;20196;-75
2023/04/27 03:55:44;;;;;;;4.47;0.77;;;24.90;99.90;;;;;;5069273;28;20195;-75
2023/04/27 03:58:16;;;;;;;3.85;0.80;;;24.90;99.90;;;;;;5068547;28;20222;-76
2023/04/27 04:00:47;;;;;;;4.68;1.00;;;24.90;99.90;;;;;;5070527;28;20243;-76
2023/04/27 04:03:18;;;;;;;5.43;1.10;;;24.90;99.90;;;;;;5077432;28;20572;-76
2023/04/27 04:05:49;;;;;;;4.60;0.95;;;24.90;99.90;;;;;;5069755;28;20579;-76
2023/04/27 04:08:20;;;;;;;3.47;0.90;;;24.80;99.90;;;;;;5067681;28;20224;-76
2023/04/27 04:10:53;;;;;;;3.70;0.82;;;24.70;99.90;;;;;;5069953;28;20192;-75
2023/04/27 04:13:25;;;;;;;4.03;0.90;;;24.70;99.90;;;;;;5069965;28;20207;-76
2023/04/27 04:16:04;;;;;;;5.65;1.15;;;24.70;99.90;;;;;;5070378;28;20192;-75
2023/04/27 04:18:36;;;;;;;5.80;0.93;;;24.80;99.90;;;;;;5068383;28;20207;-75
2023/04/27 04:21:07;;;;;;;5.18;1.00;;;24.70;99.90;;;;;;5071655;28;20200;-77
2023/04/27 04:23:39;;;;;;;3.67;0.90;;;24.70;99.90;;;;;;5051634;28;20203;-77
2023/04/27 04:26:13;;;;;;;6.07;0.88;;;24.70;99.90;;;;;;5058556;28;20203;-76
2023/04/27 04:28:45;;;;;;;5.25;1.10;;;24.60;99.90;;;;;;5070538;28;20262;-77
2023/04/27 04:31:17;;;;;;;4.82;1.17;;;24.60;99.90;;;;;;5069995;28;20196;-76
2023/04/27 04:33:48;;;;;;;3.45;0.80;;;24.60;99.90;;;;;;5069389;28;20200;-76
2023/04/27 04:36:19;;;;;;;3.63;1.00;;;24.50;99.90;;;;;;5068796;28;20192;-76
2023/04/27 04:38:50;;;;;;;5.00;0.90;;;24.50;99.90;;;;;;5069429;28;20196;-76
2023/04/27 04:41:23;;;;;;;4.63;0.95;;;24.40;99.90;;;;;;5068431;28;20767;-75
2023/04/27 04:43:54;;;;;;;3.45;0.82;;;24.40;99.90;;;;;;5069207;28;20674;-76
2023/04/27 04:46:25;;;;;;;4.03;1.00;;;24.40;99.90;;;;;;5067013;28;20559;-76
2023/04/27 04:48:56;;;;;;;3.28;0.82;;;24.30;99.90;;;;;;5067720;28;20200;-76
2023/04/27 04:51:29;;;;;;;3.63;0.93;;;24.30;99.90;;;;;;5069613;28;20655;-76
2023/04/27 04:54:00;;;;;;;4.97;1.10;;;24.30;99.90;;;;;;5062674;28;20196;-75
2023/04/27 04:56:33;;;;;;;2.40;0.77;;;24.30;99.90;;;;;;5073719;28;20196;-76
2023/04/27 04:59:04;;;;;;;6.13;1.00;;;24.30;99.90;;;;;;5073833;28;20204;-76
2023/04/27 05:01:36;;;;;;;3.67;0.80;;;24.30;99.90;;;;;;5075868;28;20219;-76
2023/04/27 05:04:07;;;;;;;5.38;1.00;;;24.30;99.90;;;;;;5073840;28;20203;-75
2023/04/27 05:06:38;;;;;;;7.85;1.17;;;24.30;99.90;;;;;;5075016;28;20201;-77
2023/04/27 05:09:10;;;;;;;6.35;1.10;;;24.30;99.90;;;;;;5074862;28;20208;-77
2023/04/27 05:11:44;;;;;;;4.82;0.90;;;24.30;99.90;;;;;;5085450;28;20578;-76
2023/04/27 05:14:16;;;;;;;5.00;1.05;;;24.30;99.90;;;;;;5094451;28;20199;-77
2023/04/27 05:16:48;;;;;;;3.78;0.75;;;24.30;99.90;;;;;;5094262;28;20239;-77
2023/04/27 05:19:19;;;;;;;4.82;0.93;;;24.30;99.90;;;;;;5081508;28;20200;-77
2023/04/27 05:21:50;;;;;;;3.70;0.93;;;24.30;99.90;;;;;;5074412;28;20265;-76
2023/04/27 05:24:21;;;;;;;5.10;0.80;;;24.30;99.90;;;;;;5076441;28;20204;-76
2023/04/27 05:26:55;;;;;;;3.25;1.00;;;24.20;99.90;;;;;;5075179;28;20211;-74
2023/04/27 05:29:26;;;;;;;4.03;0.88;;;24.20;99.90;;;;;;5075597;28;20647;-75
2023/04/27 05:31:58;;;;;;;3.80;0.77;;;24.20;99.90;;;;;;5074522;28;20597;-76
2023/04/27 05:34:29;;;;;;;2.92;0.77;;;24.20;99.90;;;;;;5073076;28;20199;-76
2023/04/27 05:37:01;;;;;;;3.85;0.95;;;24.30;99.90;;;;;;5070034;28;20200;-75
2023/04/27 05:39:33;;;;;;;3.28;0.90;;;24.30;99.90;;;;;;5073853;28;20196;-75
2023/04/27 05:42:08;;;;;;;4.43;0.80;;;24.20;99.90;;;;;;5074820;28;20203;-75
2023/04/27 05:44:39;;;;;;;4.20;0.70;;;24.30;99.90;;;;;;5074709;28;20567;-76
2023/04/27 05:47:11;;;;;;;3.35;0.88;;;24.20;99.90;;;;;;5066826;28;20772;-76
2023/04/27 05:49:42;;;;;;;5.10;1.02;;;24.20;99.90;;;;;;5073079;28;20203;-77
2023/04/27 05:52:13;;;;;;;4.38;0.82;;;24.20;99.90;;;;;;5070691;28;20242;-75
2023/04/27 05:54:48;;;;;;;2.63;0.68;;;24.20;99.90;;;;;;5069482;28;20196;-76
2023/04/27 05:57:21;;;;;;;5.38;0.90;;;24.30;99.90;;;;;;5069716;28;20203;-75
2023/04/27 05:59:52;;;;;;;4.03;1.02;;;24.30;99.90;;;;;;5068585;28;20195;-74
2023/04/27 06:02:24;;;;;;;4.47;1.13;;;24.40;99.90;;;;;;5077558;28;20191;-75
2023/04/27 06:04:55;;;;;;;3.60;0.60;;;24.40;99.90;;;;;;5071808;28;20207;-74
2023/04/27 06:07:26;;;;;;;3.80;0.82;;;24.50;99.90;;;;;;5066436;28;20232;-76
2023/04/27 06:09:57;;;;;;;6.05;0.90;;;24.50;99.90;;;;;;5069054;28;20658;-75
2023/04/27 06:12:30;;;;;;;3.10;0.85;;;24.50;99.90;;;;;;5070596;28;20218;-76
2023/04/27 06:15:07;;;;;;;4.43;1.00;;;24.50;99.90;;;;;;5072292;28;20200;-74
2023/04/27 06:17:38;;;;;;;2.95;0.95;;;24.70;99.90;;;;;;5069794;28;20234;-75
2023/04/27 06:20:10;;;;;;;3.60;0.63;;;24.80;99.90;;;;;;5057752;28;20247;-75
2023/04/27 06:22:42;;;;;;;2.30;0.63;;;24.90;99.90;;;;;;5069971;28;20257;-75
2023/04/27 06:25:13;;;;;;;4.13;0.75;;;24.90;99.90;;;;;;5070535;28;20216;-75
2023/04/27 06:27:46;;;;;;;2.88;0.70;;;24.90;99.90;;;;;;5071679;28;20224;-74
2023/04/27 06:30:17;;;;;;;4.28;0.73;;;24.90;99.90;;;;;;5065401;28;20291;-75
2023/04/27 06:32:48;;;;;;;3.92;0.80;;;24.90;99.90;;;;;;5057604;28;20219;-75
2023/04/27 06:35:20;;;;;;;3.17;0.98;;;24.90;99.90;;;;;;5070073;28;20192;-75
2023/04/27 06:37:51;;;;;;;4.32;0.80;;;24.80;99.90;;;;;;5068758;28;20236;-77
2023/04/27 06:40:22;;;;;;;3.42;1.00;;;24.80;99.90;;;;;;5069369;28;20200;-76
2023/04/27 06:42:55;;;;;;;3.35;0.85;;;24.60;99.90;;;;;;5069186;28;20210;-76
2023/04/27 06:45:27;;;;;;;5.78;0.90;;;24.50;99.90;;;;;;5071014;28;20207;-77
2023/04/27 06:47:58;;;;;;;4.35;1.10;;;24.30;99.90;;;;;;5071675;28;20223;-76
2023/04/27 06:50:29;;;;;;;3.58;0.95;;;24.20;99.90;;;;;;5070432;28;20574;-77
2023/04/27 06:53:00;;;;;;;5.57;1.42;;;24.10;99.90;;;;;;5073015;28;20225;-77
2023/04/27 06:55:31;;;;;;;3.70;0.90;;;24.00;99.90;;;;;;5071132;28;20736;-75
2023/04/27 06:58:04;;;;;;;4.20;0.82;;;23.90;99.90;;;;;;5065613;28;20200;-75
2023/04/27 07:00:36;;;;;;;4.68;1.00;;;23.80;99.90;;;;;;5067948;28;20224;-76
2023/04/27 07:03:07;;;;;;;3.63;0.98;;;23.60;99.90;;;;;;5067668;28;20204;-77
2023/04/27 07:05:38;;;;;;;5.20;1.02;;;23.50;99.90;;;;;;5067017;28;20195;-77
2023/04/27 07:08:09;;;;;;;2.88;0.80;;;23.50;99.90;;;;;;5060143;28;20231;-77
2023/04/27 07:10:40;;;;;;;4.70;1.23;;;23.40;99.90;;;;;;5073459;28;20196;-77
2023/04/27 07:13:13;;;;;;;5.18;1.48;;;23.30;99.90;;;;;;5069713;28;20196;-76
2023/04/27 07:15:44;;;;;;;6.93;1.02;;;23.30;99.90;;;;;;5067857;28;20706;-76
2023/04/27 07:18:15;;;;;;;7.43;1.00;;;23.20;99.90;;;;;;5067723;28;20567;-77
2023/04/27 07:20:46;;;;;;;7.28;1.02;;;23.10;99.90;;;;;;5069704;28;20207;-78
2023/04/27 07:23:17;;;;;;;9.60;1.20;;;23.10;99.90;;;;;;5069103;28;20200;-76
2023/04/27 07:25:48;;;;;;;4.47;0.93;;;23.00;99.90;;;;;;5071439;28;20203;-76
2023/04/27 07:28:21;;;;;;;3.72;0.80;;;23.00;99.90;;;;;;5068399;28;20698;-77
2023/04/27 07:30:52;;;;;;;4.30;1.02;;;22.90;99.90;;;;;;5067995;28;20251;-77
2023/04/27 07:33:24;;;;;;;5.68;1.00;;;22.80;99.90;;;;;;5073654;28;20188;-76
2023/04/27 07:35:55;;;;;;;6.10;1.02;;;22.80;99.90;;;;;;5072075;28;20220;-75
2023/04/27 07:38:27;;;;;;;6.22;1.02;;;22.80;99.90;;;;;;5070971;28;20203;-76
2023/04/27 07:41:00;;;;;;;5.22;1.00;;;22.80;99.90;;;;;;5069109;28;20195;-77
2023/04/27 07:43:34;;;;;;;4.88;1.05;;;22.70;99.90;;;;;;5070991;28;20681;-76
2023/04/27 07:46:05;;;;;;;5.35;0.90;;;22.60;99.90;;;;;;5070496;28;20196;-76
2023/04/27 07:48:36;;;;;;;5.97;1.17;;;22.50;99.90;;;;;;5070401;28;20219;-77
2023/04/27 07:51:07;;;;;;;4.97;1.05;;;22.50;99.90;;;;;;5070598;28;20196;-75
2023/04/27 07:53:39;;;;;;;4.70;1.00;;;22.50;99.90;;;;;;5069898;28;20196;-75
2023/04/27 07:56:10;;;;;;;5.35;1.20;;;22.50;99.90;;;;;;5068948;28;20192;-75
2023/04/27 07:58:45;;;;;;;4.53;1.00;;;22.50;99.90;;;;;;5067103;28;20250;-77
2023/04/27 08:01:16;;;;;;;7.22;1.08;;;22.50;99.90;;;;;;5074147;28;20245;-78
2023/04/27 08:03:47;;;;;;;7.13;1.10;;;22.40;99.90;;;;;;5072315;28;20223;-76
2023/04/27 08:06:19;;;;;;;6.95;1.10;;;22.40;99.90;;;;;;5069479;28;20219;-76
2023/04/27 08:08:50;;;;;;;6.18;1.20;;;22.40;99.90;;;;;;5069100;28;20231;-76
2023/04/27 08:11:21;;;;;;;5.03;0.80;;;22.40;99.90;;;;;;5069812;28;20566;-76
2023/04/27 08:13:54;;;;;;;6.25;1.05;;;22.40;99.90;;;;;;5070340;28;20228;-76
2023/04/27 08:16:25;;;;;;;4.05;1.17;;;22.30;99.90;;;;;;5071254;28;20222;-75
2023/04/27 08:18:56;;;;;;;6.35;1.08;;;22.30;99.90;;;;;;5068280;28;20246;-76
2023/04/27 08:21:28;;;;;;;6.68;1.23;;;22.30;99.90;;;;;;5068747;28;20239;-75
2023/04/27 08:24:00;;;;;;;4.93;0.98;;;22.30;99.90;;;;;;5070168;28;20291;-75
2023/04/27 08:26:31;;;;;;;6.57;1.08;;;22.30;99.90;;;;;;5056466;28;20271;-74
2023/04/27 08:29:04;;;;;;;5.97;1.10;;;22.30;99.90;;;;;;5070312;28;20242;-75
2023/04/27 08:31:36;;;;;;;6.47;1.20;;;22.30;99.90;;;;;;5074652;28;20211;-75
2023/04/27 08:34:07;;;;;;;6.68;1.30;;;22.20;99.90;;;;;;5073773;28;20193;-75
2023/04/27 08:36:38;;;;;;;5.55;1.00;;;22.20;99.90;;;;;;5073766;28;20192;-76
2023/04/27 08:39:09;;;;;;;7.18;1.13;;;22.20;99.90;;;;;;5073716;28;20214;-76
2023/04/27 08:41:45;;;;;;;3.75;0.90;;;22.20;99.90;;;;;;5071573;28;20727;-76
2023/04/27 08:44:18;;;;;;;3.38;0.93;;;22.20;99.90;;;;;;5072846;28;20196;-76
2023/04/27 08:46:49;;;;;;;5.35;1.10;;;22.30;99.90;;;;;;5085460;28;20207;-75
2023/04/27 08:49:21;;;;;;;7.97;1.25;;;22.20;99.90;;;;;;5075154;28;20234;-76
2023/04/27 08:51:52;;;;;;;6.93;1.40;;;22.20;99.90;;;;;;5080102;28;20657;-76
2023/04/27 08:54:24;;;;;;;9.18;1.38;;;22.20;99.90;;;;;;5081869;28;20651;-76
2023/04/27 08:56:55;;;;;;;4.78;0.90;;;22.20;99.90;;;;;;5079736;28;20279;-75
2023/04/27 08:59:31;;;;;;;5.10;1.08;;;22.10;99.90;;;;;;5075157;28;20689;-75
2023/04/27 09:02:02;;;;;;;5.72;1.25;;;22.20;99.90;;;;;;5070027;28;20690;-75
2023/04/27 09:04:40;;;;;;;6.22;1.48;;;22.10;99.90;;;;;;5076339;28;20195;-75
2023/04/27 09:07:15;;;;;;;5.50;0.93;;;22.10;99.90;;;;;;5075337;28;20206;-76
2023/04/27 09:09:47;;;;;;;5.63;1.35;;;22.10;99.90;;;;;;5086607;28;20701;-77
2023/04/27 09:12:19;;;;;;;4.05;1.10;;;22.10;99.90;;;;;;5094273;28;20199;-75
2023/04/27 09:15:02;;;;;;;6.47;1.20;;;22.10;99.90;;;;;;5093724;28;20199;-76
2023/04/27 09:17:37;;;;;;;4.95;1.00;;;22.00;99.90;;;;;;5093754;28;20199;-74
2023/04/27 09:20:11;;;;;;;4.95;1.33;;;22.00;99.90;;;;;;5072362;28;20280;-75
2023/04/27 09:22:49;;;;;;;7.05;1.27;;;22.00;99.90;;;;;;5054334;28;20196;-76
2023/04/27 09:25:28;;;;;;;4.10;1.30;;;22.00;99.90;;;;;;5069446;28;20196;-75
2023/04/27 09:28:00;;;;;;;4.13;1.02;;;22.00;99.90;;;;;;5066848;28;20716;-76
2023/04/27 09:30:35;;;;;;;7.60;1.15;;;22.00;99.90;;;;;;5073628;28;20840;-76
2023/04/27 09:33:06;;;;;;;6.60;1.38;;;22.00;99.90;;;;;;5071273;28;20628;-76
2023/04/27 09:35:37;;;;;;;4.05;1.20;;;22.00;99.90;;;;;;5073217;28;20192;-76
2023/04/27 09:38:09;;;;;;;7.38;1.70;;;21.90;99.90;;;;;;5073198;28;20313;-76
2023/04/27 09:40:40;;;;;;;5.22;1.00;;;21.90;99.90;;;;;;5071830;28;20192;-76
2023/04/27 09:43:11;;;;;;;5.53;1.27;;;21.90;99.90;;;;;;5073372;28;20200;-76
2023/04/27 09:45:45;;;;;;;10.88;1.65;;;22.00;99.90;;;;;;5070778;28;20188;-75
2023/04/27 09:48:16;;;;;;;6.38;1.50;;;22.00;99.90;;;;;;5073418;28;20196;-76
2023/04/27 09:50:47;;;;;;;6.68;1.38;;;21.90;99.90;;;;;;5071143;28;20196;-75
2023/04/27 09:53:20;;;;;;;9.02;1.48;;;21.90;99.90;;;;;;5072048;28;20199;-75
2023/04/27 09:56:00;;;;;;;5.60;1.35;;;21.90;99.90;;;;;;5071288;28;20203;-76
2023/04/27 09:58:54;;;;;;;4.57;1.15;;;22.00;99.90;;;;;;5071447;28;20539;-75
2023/04/27 10:01:35;;;;;;;4.68;1.20;;;21.90;99.90;;;;;;5085761;28;20922;-75
2023/04/27 10:04:22;;;;;;;5.75;1.50;;;21.90;99.90;;;;;;5077141;28;20188;-75
2023/04/27 10:07:01;;;;;;;7.05;1.30;;;21.90;99.90;;;;;;5073244;28;20667;-75
2023/04/27 10:09:38;;;;;;;6.63;1.25;;;21.90;99.90;;;;;;5072920;28;20251;-76
2023/04/27 10:12:22;;;;;;;4.65;1.10;;;21.90;99.90;;;;;;5072664;28;20200;-76
2023/04/27 10:14:58;;;;;;;4.95;1.20;;;21.80;99.90;;;;;;5072282;28;20200;-76
2023/04/27 10:17:33;;;;;;;4.45;1.33;;;21.80;99.90;;;;;;5076807;28;20193;-76
2023/04/27 10:20:06;;;;;;;6.72;1.33;;;21.80;99.90;;;;;;5072025;28;20199;-76
2023/04/27 10:22:45;;;;;;;6.32;1.33;;;21.80;99.90;;;;;;5072573;28;20235;-75
2023/04/27 10:25:20;;;;;;;8.30;1.48;;;21.80;99.90;;;;;;5071894;28;20196;-75
2023/04/27 10:27:56;;;;;;;6.15;1.25;;;21.80;99.90;;;;;;5072195;28;20195;-75
2023/04/27 10:30:28;;;;;;;6.28;1.45;;;21.70;99.90;;;;;;5057025;28;20216;-75
2023/04/27 10:33:06;;;;;;;3.55;0.82;;;21.70;99.90;;;;;;5064903;28;20683;-75
2023/04/27 10:35:37;;;;;;;4.43;1.33;;;21.70;99.90;;;;;;5072316;28;20203;-75
2023/04/27 10:38:13;;;;;;;4.45;1.00;;;21.70;99.90;;;;;;5068000;28;20187;-75
2023/04/27 10:40:45;;;;;;;5.00;1.20;;;21.70;99.90;;;;;;5071511;28;20693;-76
2023/04/27 10:43:17;;;;;;;4.10;1.10;;;21.70;99.90;;;;;;5071461;28;20655;-76
2023/04/27 10:45:48;;;;;;;5.63;1.33;;;21.70;99.90;;;;;;5070299;28;20591;-76
2023/04/27 10:48:21;;;;;;;6.20;1.10;;;21.60;99.90;;;;;;5052118;28;20192;-75
2023/04/27 10:50:54;;;;;;;4.72;1.30;;;21.60;99.90;;;;;;5060044;28;20203;-75
2023/04/27 10:53:26;;;;;;;4.28;0.93;;;21.60;99.90;;;;;;5070554;28;20207;-75
2023/04/27 10:55:58;;;;;;;5.00;1.40;;;21.60;99.90;;;;;;5070770;28;20728;-76
2023/04/27 10:58:29;;;;;;;7.55;1.42;;;21.60;99.90;;;;;;5069330;28;20211;-76
2023/04/27 11:01:01;;;;;;;7.50;1.63;;;21.60;99.90;;;;;;5071353;28;20224;-75
2023/04/27 11:03:34;;;;;;;7.15;1.25;;;21.50;99.90;;;;;;5069194;28;20200;-75
2023/04/27 11:06:06;;;;;;;7.18;1.20;;;21.50;99.90;;;;;;5069999;28;20707;-75
2023/04/27 11:08:46;;;;;;;6.25;1.38;;;21.50;99.90;;;;;;5079611;28;20199;-74
2023/04/27 11:11:18;;;;;;;4.57;1.33;;;21.50;99.90;;;;;;5066909;28;20187;-75
2023/04/27 11:13:51;;;;;;;5.38;1.08;;;21.50;99.90;;;;;;5059895;28;20188;-76
2023/04/27 11:16:22;;;;;;;6.68;1.10;;;21.50;99.90;;;;;;5069043;28;20253;-77
2023/04/27 11:18:55;;;;;;;2.83;0.80;;;21.50;99.90;;;;;;5069298;28;20218;-76
2023/04/27 11:21:27;;;;;;;6.30;1.38;;;21.50;99.90;;;;;;5070116;28;20643;-76
2023/04/27 11:23:58;;;;;;;4.60;0.95;;;21.50;99.90;;;;;;5070178;28;20204;-76
2023/04/27 11:26:29;;;;;;;9.10;1.15;;;21.40;99.90;;;;;;5061812;28;20196;-77
2023/04/27 11:29:08;;;;;;;4.70;1.00;;;21.40;99.90;;;;;;5069484;28;20238;-76
2023/04/27 11:31:47;;;;;;;5.95;1.10;;;21.40;99.90;;;;;;5070915;28;20192;-77
2023/04/27 11:34:25;;;;;;;5.90;1.30;;;21.40;99.90;;;;;;5069747;28;20226;-76
2023/04/27 11:37:03;;;;;;;4.97;1.02;;;21.40;99.90;;;;;;5070228;28;20196;-76
2023/04/27 11:39:37;;;;;;;3.90;0.77;;;21.40;99.90;;;;;;5070795;28;20670;-77
2023/04/27 11:42:25;;;;;;;4.88;0.90;;;21.40;99.90;;;;;;5070213;28;20199;-76
2023/04/27 11:44:57;;;;;;;6.00;1.13;;;21.30;99.90;;;;;;5051107;28;20196;-76
2023/04/27 11:47:29;;;;;;;5.30;1.17;;;21.30;99.90;;;;;;5065482;28;20563;-76
2023/04/27 11:50:03;;;;;;;5.78;1.15;;;21.30;99.90;;;;;;5070597;28;20231;-76
2023/04/27 11:52:37;;;;;;;5.30;1.25;;;21.30;99.90;;;;;;5068132;28;20232;-75
2023/04/27 11:55:14;;;;;;;4.00;0.90;;;21.30;99.90;;;;;;5075945;28;20219;-77
2023/04/27 11:57:45;;;;;;;4.60;1.00;;;21.20;99.90;;;;;;5074483;28;20195;-77
2023/04/27 12:00:17;;;;;;;4.80;1.30;;;21.20;99.90;;;;;;5073805;28;20235;-77
2023/04/27 12:02:48;;;;;;;6.25;1.20;;;21.20;99.90;;;;;;5072568;28;20677;-76
2023/04/27 12:05:21;;;;;;;4.22;0.95;;;21.20;99.90;;;;;;5074771;28;20253;-76
2023/04/27 12:07:53;;;;;;;6.70;1.20;;;21.20;99.90;;;;;;5077057;28;20199;-76
2023/04/27 12:10:24;;;;;;;5.45;1.15;;;21.20;99.90;;;;;;5076986;28;20579;-77
2023/04/27 12:12:57;;;;;;;6.03;1.13;;;21.10;99.90;;;;;;5079636;28;20225;-78
2023/04/27 12:15:28;;;;;;;3.22;0.90;;;21.00;99.90;;;;;;5083325;28;20200;-75
2023/04/27 12:17:59;;;;;;;3.65;0.98;;;21.00;99.90;;;;;;5072161;28;20216;-77
2023/04/27 12:20:32;;;;;;;5.35;1.08;;;21.00;99.90;;;;;;5078598;28;20673;-77
2023/04/27 12:23:04;;;;;;;5.22;1.10;;;21.10;99.90;;;;;;5077501;28;20208;-76
2023/04/27 12:25:45;;;;;;;5.47;1.25;;;21.10;99.90;;;;;;5059191;28;20193;-83
2023/04/27 12:28:18;;;;;;;4.88;0.88;;;21.00;99.90;;;;;;5069869;28;20203;-75
2023/04/27 12:30:49;;;;;;;3.85;0.90;;;21.10;99.90;;;;;;5072604;28;20215;-76
2023/04/27 12:33:20;;;;;;;2.85;0.80;;;21.00;99.90;;;;;;5080160;28;20222;-76
2023/04/27 12:35:54;;;;;;;6.95;1.00;;;21.00;99.90;;;;;;5059790;28;20733;-76
2023/04/27 12:38:25;;;;;;;6.50;0.75;;;21.00;99.90;;;;;;5074217;28;20286;-76
2023/04/27 12:40:56;;;;;;;4.35;0.73;;;21.00;99.90;;;;;;5075046;28;20195;-77
2023/04/27 12:43:27;;;;;;;3.35;1.05;;;21.00;99.90;;;;;;5074995;28;20249;-75
2023/04/27 12:45:58;;;;;;;4.13;1.15;;;20.90;99.90;;;;;;5075575;28;20195;-75
2023/04/27 12:48:29;;;;;;;3.83;1.10;;;20.90;99.90;;;;;;5074266;28;20207;-76
2023/04/27 12:51:02;;;;;;;3.42;0.80;;;20.90;99.90;;;;;;5087129;28;20230;-75
2023/04/27 12:53:33;;;;;;;4.75;1.10;;;20.80;99.90;;;;;;5095041;28;20195;-76
2023/04/27 12:56:05;;;;;;;2.38;0.70;;;20.90;99.90;;;;;;5094826;28;20206;-75
2023/04/27 12:58:36;;;;;;;5.35;1.00;;;20.90;99.90;;;;;;5094588;28;20233;-76
2023/04/27 13:01:13;;;;;;;5.63;1.20;;;20.90;99.90;;;;;;5079320;28;20259;-76
2023/04/27 13:03:45;;;;;;;5.47;0.90;;;20.90;99.90;;;;;;5054105;28;20200;-76
2023/04/27 13:06:18;;;;;;;5.32;1.10;;;20.90;99.90;;;;;;5069423;28;20223;-77
2023/04/27 13:08:50;;;;;;;2.85;0.80;;;20.90;99.90;;;;;;5074281;28;20603;-76
2023/04/27 13:11:21;;;;;;;5.10;1.00;;;20.90;99.90;;;;;;5074019;28;20223;-76
2023/04/27 13:13:53;;;;;;;5.72;1.20;;;20.80;99.90;;;;;;5073424;28;20196;-75